Time;durP1;ratioP1;P1;durP2;ratioP2;P2;SDS_P1;SDS_P2;PMS_P1;PMS_P2;Temp;Humidity;BMP_temperature;BMP_pressure;BME280_temperature;BME280_humidity;BME280_pressure;Samples;Min_cycle;Max_cycle;Signal;HPM_P1;HPM_P2
2023/01/20 00:01:22;;;;;;;33.33;27.80;;;1.30;99.90;;;;;;6136000;23;20835;-74
2023/01/20 00:03:52;;;;;;;31.07;27.07;;;1.30;99.90;;;;;;6126502;23;20461;-74
2023/01/20 00:06:21;;;;;;;27.53;24.17;;;1.20;99.90;;;;;;6135901;23;20945;-74
2023/01/20 00:08:53;;;;;;;38.17;26.17;;;1.20;99.90;;;;;;6136324;23;20900;-74
2023/01/20 00:11:23;;;;;;;31.50;28.27;;;1.20;99.90;;;;;;6124644;23;20481;-74
2023/01/20 00:13:54;;;;;;;30.67;27.37;;;1.20;99.90;;;;;;6136461;23;20459;-74
2023/01/20 00:16:23;;;;;;;31.33;27.57;;;1.20;99.90;;;;;;6124528;23;20463;-74
2023/01/20 00:18:51;;;;;;;29.37;26.30;;;1.10;99.90;;;;;;6137266;23;20402;-74
2023/01/20 00:21:20;;;;;;;31.73;28.33;;;1.10;99.90;;;;;;6126384;23;20414;-75
2023/01/20 00:23:48;;;;;;;32.33;28.83;;;1.10;99.90;;;;;;6126327;23;20524;-74
2023/01/20 00:26:18;;;;;;;33.07;27.80;;;1.10;99.90;;;;;;6137673;23;20482;-74
2023/01/20 00:28:48;;;;;;;33.77;27.87;;;1.10;99.90;;;;;;6126367;23;20418;-74
2023/01/20 00:31:19;;;;;;;35.23;28.63;;;1.10;99.90;;;;;;6126657;23;20435;-74
2023/01/20 00:33:48;;;;;;;35.80;31.23;;;1.00;99.90;;;;;;6137683;23;20375;-74
2023/01/20 00:36:18;;;;;;;37.93;32.00;;;1.00;99.90;;;;;;6137481;23;20419;-74
2023/01/20 00:38:46;;;;;;;36.80;31.80;;;1.00;99.90;;;;;;6126203;23;20428;-74
2023/01/20 00:41:15;;;;;;;42.33;33.57;;;1.00;99.90;;;;;;6137618;23;20414;-74
2023/01/20 00:43:44;;;;;;;38.33;31.83;;;1.00;99.90;;;;;;6126293;23;20423;-74
2023/01/20 00:46:14;;;;;;;40.67;35.20;;;1.00;99.90;;;;;;6137408;23;20784;-75
2023/01/20 00:48:42;;;;;;;39.57;34.17;;;1.00;99.90;;;;;;6137545;23;20435;-74
2023/01/20 00:51:11;;;;;;;44.07;36.20;;;1.00;99.90;;;;;;6126111;23;20847;-74
2023/01/20 00:53:39;;;;;;;45.93;36.23;;;1.00;99.90;;;;;;6137807;23;20404;-74
2023/01/20 00:56:08;;;;;;;42.80;37.00;;;1.00;99.90;;;;;;6127911;23;20414;-74
2023/01/20 00:58:36;;;;;;;48.63;39.80;;;0.90;99.90;;;;;;6137953;23;20798;-74
2023/01/20 01:01:04;;;;;;;47.13;41.90;;;0.90;99.90;;;;;;6137844;23;20411;-74
2023/01/20 01:03:34;;;;;;;46.10;38.63;;;0.90;99.90;;;;;;6127919;23;20789;-74
2023/01/20 01:06:08;;;;;;;50.67;39.70;;;0.90;99.90;;;;;;6137398;23;20403;-74
2023/01/20 01:08:36;;;;;;;48.37;37.00;;;0.90;99.90;;;;;;6138146;23;20863;-74
2023/01/20 01:11:05;;;;;;;49.83;37.47;;;0.90;99.90;;;;;;6137145;23;20434;-74
2023/01/20 01:13:34;;;;;;;45.97;36.60;;;0.90;99.90;;;;;;6137713;23;20398;-75
2023/01/20 01:16:02;;;;;;;50.67;37.27;;;0.90;99.90;;;;;;6127683;23;20474;-75
2023/01/20 01:18:30;;;;;;;49.77;36.37;;;0.80;99.90;;;;;;6126077;23;21005;-74
2023/01/20 01:20:59;;;;;;;50.90;39.43;;;0.80;99.90;;;;;;6125836;23;20417;-74
2023/01/20 01:23:27;;;;;;;49.40;35.43;;;0.80;99.90;;;;;;6137180;23;20398;-74
2023/01/20 01:25:56;;;;;;;58.70;37.13;;;0.90;99.90;;;;;;6125899;23;20451;-74
2023/01/20 01:28:24;;;;;;;46.97;36.73;;;0.90;99.90;;;;;;6137585;23;20490;-74
2023/01/20 01:30:52;;;;;;;49.87;39.37;;;0.90;99.90;;;;;;6137054;23;20952;-74
2023/01/20 01:33:20;;;;;;;47.23;35.83;;;0.90;99.90;;;;;;6137432;23;20483;-74
2023/01/20 01:35:55;;;;;;;54.60;37.87;;;0.90;99.90;;;;;;6127492;23;20413;-74
2023/01/20 01:38:25;;;;;;;48.30;35.23;;;0.80;99.90;;;;;;6125715;23;20414;-74
2023/01/20 01:40:54;;;;;;;54.27;37.40;;;0.80;99.90;;;;;;6125768;23;20743;-74
2023/01/20 01:43:25;;;;;;;51.50;35.67;;;0.80;99.90;;;;;;6125622;23;20418;-74
2023/01/20 01:45:54;;;;;;;48.73;36.07;;;0.90;99.90;;;;;;6136788;23;20482;-74
2023/01/20 01:48:23;;;;;;;54.77;37.90;;;0.80;99.90;;;;;;6136921;23;20397;-75
2023/01/20 01:50:55;;;;;;;48.87;36.20;;;0.80;99.90;;;;;;6125606;23;20441;-74
2023/01/20 01:53:26;;;;;;;50.80;34.97;;;0.80;99.90;;;;;;6137339;23;20377;-74
2023/01/20 01:55:58;;;;;;;58.57;38.43;;;0.80;99.90;;;;;;6125474;23;20500;-74
2023/01/20 01:58:30;;;;;;;51.63;36.47;;;0.80;99.90;;;;;;6125466;23;20947;-74
2023/01/20 02:00:58;;;;;;;56.77;36.70;;;0.80;99.90;;;;;;6125442;23;20411;-74
2023/01/20 02:03:31;;;;;;;59.67;41.67;;;0.80;99.90;;;;;;6136809;23;20818;-75
2023/01/20 02:06:00;;;;;;;56.50;41.17;;;0.90;99.90;;;;;;6127030;23;20406;-75
2023/01/20 02:08:30;;;;;;;52.83;38.70;;;0.80;99.90;;;;;;6125465;23;20427;-75
2023/01/20 02:10:58;;;;;;;58.37;39.90;;;0.90;99.90;;;;;;6137601;23;20522;-75
2023/01/20 02:13:26;;;;;;;54.83;38.63;;;0.90;99.90;;;;;;6136728;23;20399;-74
2023/01/20 02:16:04;;;;;;;53.30;38.73;;;0.90;99.90;;;;;;6136422;23;20407;-75
2023/01/20 02:18:43;;;;;;;55.00;39.10;;;0.90;99.90;;;;;;6125407;23;20410;-74
2023/01/20 02:21:48;;;;;;;55.70;38.07;;;0.90;99.90;;;;;;6125362;23;20783;-74
2023/01/20 02:24:58;;;;;;;51.90;35.97;;;0.90;99.90;;;;;;6125377;23;20421;-74
2023/01/20 02:27:45;;;;;;;60.90;38.27;;;0.90;99.90;;;;;;6117762;23;20438;-74
2023/01/20 02:30:36;;;;;;;57.47;38.20;;;0.90;99.90;;;;;;6136567;23;20835;-74
2023/01/20 02:33:12;;;;;;;50.37;34.70;;;0.90;99.90;;;;;;6137236;23;20412;-74
2023/01/20 02:35:45;;;;;;;52.83;37.43;;;0.90;99.90;;;;;;6127166;23;20393;-74
2023/01/20 02:38:18;;;;;;;54.67;38.30;;;1.00;99.90;;;;;;6136540;23;20421;-74
2023/01/20 02:40:53;;;;;;;51.80;38.80;;;0.90;99.90;;;;;;6136865;23;20816;-74
2023/01/20 02:43:31;;;;;;;49.30;35.00;;;1.00;99.90;;;;;;6136651;23;20415;-75
2023/01/20 02:46:04;;;;;;;50.30;34.53;;;1.00;99.90;;;;;;6128365;23;20421;-74
2023/01/20 02:48:38;;;;;;;44.93;34.70;;;1.00;99.90;;;;;;6137822;23;20445;-75
2023/01/20 02:51:12;;;;;;;47.70;36.73;;;1.00;99.90;;;;;;6137352;23;20418;-74
2023/01/20 02:53:47;;;;;;;47.47;35.23;;;1.00;99.90;;;;;;6137423;23;20378;-74
2023/01/20 02:56:18;;;;;;;49.47;34.70;;;1.00;99.90;;;;;;6126697;23;20433;-74
2023/01/20 02:58:50;;;;;;;45.57;34.13;;;1.00;99.90;;;;;;6127083;23;20426;-74
2023/01/20 03:01:23;;;;;;;45.63;35.00;;;1.00;99.90;;;;;;6125113;23;20409;-74
2023/01/20 03:03:57;;;;;;;45.77;35.00;;;1.00;99.90;;;;;;6136511;23;20374;-74
2023/01/20 03:06:30;;;;;;;50.87;33.93;;;1.00;99.90;;;;;;6136561;23;20441;-74
2023/01/20 03:09:00;;;;;;;44.43;32.83;;;1.00;99.90;;;;;;6137073;23;20379;-74
2023/01/20 03:11:35;;;;;;;48.93;35.07;;;1.10;99.90;;;;;;6136973;23;20432;-74
2023/01/20 03:14:07;;;;;;;45.97;33.37;;;1.10;99.90;;;;;;6136688;23;20409;-74
2023/01/20 03:16:35;;;;;;;43.70;34.73;;;1.10;99.90;;;;;;6136607;23;20439;-74
2023/01/20 03:19:04;;;;;;;45.70;34.33;;;1.10;99.90;;;;;;6136688;23;20403;-74
2023/01/20 03:21:33;;;;;;;43.40;32.73;;;1.10;99.90;;;;;;6136172;23;20399;-74
2023/01/20 03:24:04;;;;;;;37.30;28.97;;;1.10;99.90;;;;;;6126672;23;20798;-74
2023/01/20 03:26:33;;;;;;;40.90;31.77;;;1.10;99.90;;;;;;6136745;23;20470;-74
2023/01/20 03:29:04;;;;;;;38.00;30.17;;;1.10;99.90;;;;;;6136108;23;20417;-74
2023/01/20 03:31:36;;;;;;;40.30;31.70;;;1.10;99.90;;;;;;6124856;23;20440;-74
2023/01/20 03:34:09;;;;;;;42.10;30.80;;;1.10;99.90;;;;;;6136241;23;20388;-74
2023/01/20 03:36:39;;;;;;;39.10;29.80;;;1.10;99.90;;;;;;6136514;23;20418;-74
2023/01/20 03:39:07;;;;;;;36.03;28.83;;;1.10;99.90;;;;;;6136178;23;20452;-74
2023/01/20 03:41:49;;;;;;;40.90;30.10;;;1.10;99.90;;;;;;6136487;23;20902;-74
2023/01/20 03:44:25;;;;;;;35.20;27.87;;;1.20;99.90;;;;;;6136224;23;20379;-74
2023/01/20 03:47:02;;;;;;;32.57;25.70;;;1.20;99.90;;;;;;6124760;23;20446;-74
2023/01/20 03:49:37;;;;;;;38.00;28.90;;;1.20;99.90;;;;;;6136224;23;20382;-74
2023/01/20 03:52:11;;;;;;;37.77;28.97;;;1.20;99.90;;;;;;6136388;23;20902;-74
2023/01/20 03:54:46;;;;;;;37.10;27.83;;;1.20;99.90;;;;;;6140406;23;20390;-74
2023/01/20 03:57:17;;;;;;;36.93;26.23;;;1.20;99.90;;;;;;6140595;23;20738;-75
2023/01/20 03:59:50;;;;;;;33.40;24.57;;;1.20;99.90;;;;;;6128780;23;20403;-75
2023/01/20 04:02:19;;;;;;;33.20;26.37;;;1.20;99.90;;;;;;6138986;23;20469;-74
2023/01/20 04:04:50;;;;;;;37.17;28.10;;;1.20;99.90;;;;;;6138124;23;20402;-74
2023/01/20 04:07:21;;;;;;;34.67;26.20;;;1.20;99.90;;;;;;6127307;23;20485;-74
2023/01/20 04:09:54;;;;;;;34.50;25.50;;;1.20;99.90;;;;;;6126691;23;20465;-74
2023/01/20 04:12:22;;;;;;;36.97;27.43;;;1.20;99.90;;;;;;6126489;23;20444;-74
2023/01/20 04:14:50;;;;;;;32.80;25.00;;;1.30;99.90;;;;;;6138382;23;20402;-74
2023/01/20 04:17:18;;;;;;;34.60;26.13;;;1.30;99.90;;;;;;6126433;23;20443;-74
2023/01/20 04:19:46;;;;;;;36.03;27.83;;;1.30;99.90;;;;;;6137769;23;20777;-74
2023/01/20 04:22:23;;;;;;;32.03;26.03;;;1.30;99.90;;;;;;6126485;23;20760;-74
2023/01/20 04:24:54;;;;;;;33.63;25.60;;;1.30;99.90;;;;;;6138542;23;20411;-74
2023/01/20 04:27:23;;;;;;;33.07;26.40;;;1.30;99.90;;;;;;6126405;23;20438;-74
2023/01/20 04:29:51;;;;;;;31.90;25.57;;;1.40;99.90;;;;;;6128347;23;20414;-74
2023/01/20 04:32:19;;;;;;;33.10;26.50;;;1.40;99.90;;;;;;6137660;23;20919;-74
2023/01/20 04:34:49;;;;;;;29.70;23.73;;;1.30;99.90;;;;;;6126503;23;20797;-74
2023/01/20 04:37:19;;;;;;;32.70;26.30;;;1.40;99.90;;;;;;6126477;23;20446;-74
2023/01/20 04:39:47;;;;;;;31.90;24.23;;;1.40;99.90;;;;;;6127854;23;20959;-74
2023/01/20 04:42:15;;;;;;;33.80;26.10;;;1.40;99.90;;;;;;6138413;23;20687;-74
2023/01/20 04:44:43;;;;;;;30.80;24.43;;;1.40;99.90;;;;;;6137664;23;20413;-74
2023/01/20 04:47:11;;;;;;;32.33;25.60;;;1.40;99.90;;;;;;6126198;23;20529;-74
2023/01/20 04:49:39;;;;;;;29.93;22.73;;;1.40;99.90;;;;;;6126323;23;20422;-74
2023/01/20 04:52:07;;;;;;;31.43;24.20;;;1.40;99.90;;;;;;6137820;23;20908;-74
2023/01/20 04:54:37;;;;;;;31.33;24.57;;;1.40;99.90;;;;;;6126278;23;20503;-74
2023/01/20 04:57:05;;;;;;;30.27;21.23;;;1.40;99.90;;;;;;6126047;23;20438;-74
2023/01/20 04:59:33;;;;;;;30.20;23.47;;;1.40;99.90;;;;;;6137512;23;20890;-74
2023/01/20 05:02:01;;;;;;;29.87;23.30;;;1.40;99.90;;;;;;6126160;23;20423;-74
2023/01/20 05:04:29;;;;;;;27.10;22.43;;;1.40;99.90;;;;;;6126124;23;20411;-74
2023/01/20 05:06:57;;;;;;;33.93;24.10;;;1.40;99.90;;;;;;6126097;23;21009;-74
2023/01/20 05:09:25;;;;;;;30.50;23.50;;;1.40;99.90;;;;;;6137807;23;20406;-74
2023/01/20 05:11:55;;;;;;;30.40;23.77;;;1.40;99.90;;;;;;6137617;23;20438;-74
2023/01/20 05:14:23;;;;;;;32.23;24.40;;;1.40;99.90;;;;;;6126447;23;20420;-74
2023/01/20 05:16:51;;;;;;;31.80;23.70;;;1.40;99.90;;;;;;6125888;23;20820;-74
2023/01/20 05:19:19;;;;;;;32.93;23.97;;;1.40;99.90;;;;;;6137358;23;20407;-74
2023/01/20 05:21:47;;;;;;;33.07;24.93;;;1.40;99.90;;;;;;6125945;23;20895;-74
2023/01/20 05:24:15;;;;;;;33.13;26.03;;;1.40;99.90;;;;;;6137672;23;20402;-74
2023/01/20 05:26:43;;;;;;;33.90;27.53;;;1.40;99.90;;;;;;6125816;23;20440;-74
2023/01/20 05:29:12;;;;;;;30.80;24.63;;;1.40;99.90;;;;;;6137260;23;20404;-74
2023/01/20 05:31:42;;;;;;;32.47;25.03;;;1.40;99.90;;;;;;6137547;23;20402;-75
2023/01/20 05:34:10;;;;;;;31.47;24.80;;;1.40;99.90;;;;;;6137191;23;20403;-74
2023/01/20 05:36:38;;;;;;;32.50;24.83;;;1.40;99.90;;;;;;6125690;23;20869;-74
2023/01/20 05:39:06;;;;;;;32.53;24.63;;;1.50;99.90;;;;;;6125716;23;20444;-74
2023/01/20 05:41:34;;;;;;;34.50;27.10;;;1.50;99.90;;;;;;6125901;23;20415;-74
2023/01/20 05:44:03;;;;;;;34.53;24.40;;;1.50;99.90;;;;;;6125719;23;20419;-74
2023/01/20 05:46:32;;;;;;;32.07;24.87;;;1.50;99.90;;;;;;6137083;23;20494;-74
2023/01/20 05:49:01;;;;;;;35.00;26.50;;;1.50;99.90;;;;;;6125126;23;20416;-74
2023/01/20 05:51:30;;;;;;;33.30;25.00;;;1.50;99.90;;;;;;6137108;23;20462;-74
2023/01/20 05:53:59;;;;;;;31.47;26.00;;;1.50;99.90;;;;;;6125588;23;20474;-74
2023/01/20 05:56:27;;;;;;;32.00;25.57;;;1.50;99.90;;;;;;6125456;23;20434;-74
2023/01/20 05:58:55;;;;;;;34.80;26.60;;;1.50;99.90;;;;;;6125496;23;20430;-74
2023/01/20 06:01:23;;;;;;;32.40;26.07;;;1.50;99.90;;;;;;6125549;23;20405;-74
2023/01/20 06:03:53;;;;;;;28.50;23.63;;;1.50;99.90;;;;;;6125489;23;20918;-74
2023/01/20 06:06:21;;;;;;;31.57;25.93;;;1.50;99.90;;;;;;6136756;23;20426;-75
2023/01/20 06:08:52;;;;;;;33.83;25.57;;;1.50;99.90;;;;;;6125554;23;20415;-75
2023/01/20 06:11:20;;;;;;;31.83;25.37;;;1.50;99.90;;;;;;6137179;23;20394;-75
2023/01/20 06:13:48;;;;;;;33.17;23.60;;;1.50;99.90;;;;;;6125342;23;20818;-75
2023/01/20 06:16:17;;;;;;;29.20;24.20;;;1.50;99.90;;;;;;6126902;23;20438;-75
2023/01/20 06:18:45;;;;;;;33.00;26.27;;;1.50;99.90;;;;;;6125306;23;20803;-75
2023/01/20 06:21:15;;;;;;;30.73;24.87;;;1.50;99.90;;;;;;6125421;23;20422;-75
2023/01/20 06:23:43;;;;;;;32.93;25.57;;;1.60;99.90;;;;;;6137147;23;20400;-75
2023/01/20 06:26:13;;;;;;;34.20;26.67;;;1.60;99.90;;;;;;6125300;23;20739;-75
2023/01/20 06:28:42;;;;;;;32.30;26.27;;;1.60;99.90;;;;;;6125389;23;20434;-75
2023/01/20 06:31:12;;;;;;;30.27;24.67;;;1.60;99.90;;;;;;6136960;23;20397;-75
2023/01/20 06:33:41;;;;;;;32.27;25.30;;;1.60;99.90;;;;;;6136405;23;20421;-75
2023/01/20 06:36:12;;;;;;;32.03;25.93;;;1.60;99.90;;;;;;6136477;23;20824;-75
2023/01/20 06:38:45;;;;;;;34.47;27.30;;;1.60;99.90;;;;;;6125327;23;20426;-75
2023/01/20 06:41:14;;;;;;;31.63;25.23;;;1.60;99.90;;;;;;6136656;23;20393;-75
2023/01/20 06:43:42;;;;;;;31.63;25.77;;;1.60;99.90;;;;;;6125395;23;20501;-75
2023/01/20 06:46:11;;;;;;;34.20;26.50;;;1.60;99.90;;;;;;6136852;23;20442;-74
2023/01/20 06:48:42;;;;;;;33.47;26.47;;;1.60;99.90;;;;;;6136889;23;20431;-74
2023/01/20 06:51:12;;;;;;;33.60;25.90;;;1.60;99.90;;;;;;6136505;23;20398;-75
2023/01/20 06:53:42;;;;;;;32.37;26.70;;;1.70;99.90;;;;;;6136782;23;20417;-74
2023/01/20 06:56:12;;;;;;;34.73;26.93;;;1.70;99.90;;;;;;6137045;23;20442;-74
2023/01/20 06:58:41;;;;;;;28.97;25.13;;;1.70;99.90;;;;;;6136369;23;20889;-74
2023/01/20 07:01:12;;;;;;;33.50;27.20;;;1.70;99.90;;;;;;6136348;23;20406;-74
2023/01/20 07:03:42;;;;;;;30.33;26.77;;;1.70;99.90;;;;;;6136377;23;20861;-74
2023/01/20 07:06:16;;;;;;;29.93;25.27;;;1.70;99.90;;;;;;6124886;23;20434;-74
2023/01/20 07:08:46;;;;;;;33.30;26.10;;;1.50;99.90;;;;;;6125074;23;20438;-74
2023/01/20 07:11:14;;;;;;;33.47;26.83;;;1.70;99.90;;;;;;6124300;23;20426;-74
2023/01/20 07:13:42;;;;;;;32.83;26.20;;;1.70;99.90;;;;;;6124665;23;20468;-74
2023/01/20 07:16:10;;;;;;;33.37;28.40;;;1.70;99.90;;;;;;6136206;23;20479;-74
2023/01/20 07:18:43;;;;;;;36.77;27.27;;;1.70;99.90;;;;;;6126736;23;20408;-74
2023/01/20 07:21:12;;;;;;;32.30;25.37;;;1.70;99.90;;;;;;6136574;23;20768;-74
2023/01/20 07:23:40;;;;;;;33.13;26.57;;;1.70;99.90;;;;;;6126795;23;20415;-74
2023/01/20 07:26:11;;;;;;;36.30;28.57;;;1.70;99.90;;;;;;6136411;23;20461;-74
2023/01/20 07:28:39;;;;;;;32.87;25.40;;;1.70;99.90;;;;;;6136160;23;20399;-74
2023/01/20 07:31:09;;;;;;;31.93;25.83;;;1.70;99.90;;;;;;6136187;23;20406;-74
2023/01/20 07:33:38;;;;;;;32.90;26.83;;;1.70;99.90;;;;;;6124848;23;20441;-75
2023/01/20 07:36:08;;;;;;;35.17;28.07;;;1.70;99.90;;;;;;6136301;23;20490;-74
2023/01/20 07:38:36;;;;;;;31.67;26.23;;;1.80;99.90;;;;;;6124745;23;20767;-74
2023/01/20 07:41:05;;;;;;;32.33;26.27;;;1.80;99.90;;;;;;6136463;23;20486;-75
2023/01/20 07:43:35;;;;;;;36.57;27.60;;;1.80;99.90;;;;;;6124748;23;20882;-75
2023/01/20 07:46:05;;;;;;;35.50;26.20;;;1.80;99.90;;;;;;6136051;23;20473;-75
2023/01/20 07:48:33;;;;;;;33.50;27.80;;;1.80;99.90;;;;;;6126778;23;20439;-75
2023/01/20 07:51:04;;;;;;;35.27;27.50;;;1.80;99.90;;;;;;6124729;23;20482;-75
2023/01/20 07:53:34;;;;;;;33.90;26.00;;;1.80;99.90;;;;;;6124823;23;20949;-75
2023/01/20 07:56:03;;;;;;;35.50;26.97;;;1.80;99.90;;;;;;6136610;23;20409;-75
2023/01/20 07:58:31;;;;;;;33.53;27.00;;;1.80;99.90;;;;;;6136458;23;20461;-75
2023/01/20 08:01:08;;;;;;;35.13;27.77;;;1.80;99.90;;;;;;6136318;23;20413;-74
2023/01/20 08:03:36;;;;;;;34.50;27.10;;;1.90;99.90;;;;;;6126159;23;20862;-74
2023/01/20 08:06:05;;;;;;;32.70;26.40;;;1.90;99.90;;;;;;6126117;23;20446;-75
2023/01/20 08:08:34;;;;;;;31.30;25.97;;;1.90;99.90;;;;;;6135982;23;20778;-74
2023/01/20 08:11:03;;;;;;;32.47;26.07;;;1.90;99.90;;;;;;6135951;23;20403;-75
2023/01/20 08:13:32;;;;;;;33.10;26.53;;;1.90;99.90;;;;;;6136080;23;20495;-74
2023/01/20 08:16:01;;;;;;;33.83;27.47;;;1.90;99.90;;;;;;6135900;23;20881;-75
2023/01/20 08:18:32;;;;;;;36.53;27.20;;;1.90;99.90;;;;;;6124786;23;20464;-75
2023/01/20 08:21:03;;;;;;;30.53;24.17;;;1.90;99.90;;;;;;6136382;23;20378;-75
2023/01/20 08:23:31;;;;;;;34.40;26.17;;;2.00;99.90;;;;;;6136258;23;20430;-74
2023/01/20 08:26:01;;;;;;;27.93;22.53;;;1.90;99.90;;;;;;6135886;23;20403;-74
2023/01/20 08:28:30;;;;;;;35.00;25.93;;;2.00;99.90;;;;;;6127128;23;20417;-75
2023/01/20 08:31:04;;;;;;;34.17;26.20;;;2.00;99.90;;;;;;6126394;23;20460;-74
2023/01/20 08:33:34;;;;;;;34.47;25.57;;;2.00;99.90;;;;;;6136102;23;20388;-75
2023/01/20 08:36:08;;;;;;;31.37;23.93;;;2.00;99.90;;;;;;6124576;23;20442;-74
2023/01/20 08:38:37;;;;;;;34.20;25.33;;;2.10;99.90;;;;;;6126538;23;20404;-74
2023/01/20 08:41:09;;;;;;;34.70;26.77;;;2.10;99.90;;;;;;6138155;23;20884;-74
2023/01/20 08:43:38;;;;;;;30.40;23.83;;;2.10;99.90;;;;;;6126392;23;20428;-74
2023/01/20 08:46:08;;;;;;;32.20;24.37;;;2.10;99.90;;;;;;6125888;23;20812;-74
2023/01/20 08:48:39;;;;;;;34.47;24.77;;;2.10;99.90;;;;;;6137857;23;20415;-74
2023/01/20 08:51:10;;;;;;;31.40;24.20;;;2.10;99.90;;;;;;6126306;23;20417;-74
2023/01/20 08:53:39;;;;;;;32.23;27.63;;;2.20;99.90;;;;;;6124881;23;20417;-74
2023/01/20 08:56:07;;;;;;;30.70;24.53;;;2.20;99.90;;;;;;6135969;23;20721;-75
2023/01/20 08:58:36;;;;;;;34.37;24.57;;;2.10;99.90;;;;;;6124688;23;20909;-74
2023/01/20 09:01:08;;;;;;;31.97;25.33;;;2.20;99.90;;;;;;6136183;23;20408;-74
2023/01/20 09:03:38;;;;;;;31.87;25.20;;;2.20;99.90;;;;;;6137200;23;20890;-74
2023/01/20 09:06:08;;;;;;;30.17;23.93;;;2.20;99.90;;;;;;6137231;23;20398;-75
2023/01/20 09:08:36;;;;;;;30.90;23.90;;;2.30;99.90;;;;;;6138797;23;20554;-74
2023/01/20 09:11:06;;;;;;;30.20;23.37;;;2.30;99.90;;;;;;6126186;23;20736;-74
2023/01/20 09:13:35;;;;;;;29.00;24.10;;;2.30;99.90;;;;;;6126003;23;20810;-74
2023/01/20 09:16:04;;;;;;;28.33;21.50;;;2.30;99.90;;;;;;6137530;23;20443;-74
2023/01/20 09:18:33;;;;;;;32.27;24.40;;;2.30;99.90;;;;;;6126016;23;20472;-74
2023/01/20 09:21:05;;;;;;;30.93;23.60;;;2.40;99.90;;;;;;6137568;23;20405;-74
2023/01/20 09:23:34;;;;;;;31.87;24.70;;;2.30;99.90;;;;;;6125855;23;20468;-74
2023/01/20 09:26:04;;;;;;;31.40;25.43;;;2.40;99.90;;;;;;6137193;23;20948;-75
2023/01/20 09:28:32;;;;;;;31.47;24.50;;;2.40;99.90;;;;;;6125936;23;20964;-74
2023/01/20 09:31:02;;;;;;;32.13;25.40;;;2.50;99.90;;;;;;6125931;23;20424;-75
2023/01/20 09:33:31;;;;;;;32.70;26.20;;;2.50;99.90;;;;;;6125877;23;20417;-74
2023/01/20 09:36:02;;;;;;;31.87;26.07;;;2.60;99.90;;;;;;6137113;23;20437;-78
2023/01/20 09:44:30;;;;;;;31.40;25.70;;;2.60;99.90;;;;;;6127631;23;20419;-74
2023/01/20 09:47:21;;;;;;;32.73;25.77;;;2.70;99.90;;;;;;6136926;23;20927;-75
2023/01/20 09:53:24;;;;;;;30.60;23.90;;;2.70;99.90;;;;;;6137005;23;20377;-74
2023/01/20 09:55:55;;;;;;;30.30;22.23;;;2.80;99.90;;;;;;6137154;23;20749;-74
2023/01/20 09:58:32;;;;;;;29.80;24.00;;;2.80;99.90;;;;;;6127405;23;20396;-74
2023/01/20 10:01:09;;;;;;;29.30;24.60;;;2.90;99.90;;;;;;6127529;23;20412;-74
2023/01/20 10:03:45;;;;;;;27.97;22.80;;;2.90;99.90;;;;;;6137202;23;20377;-74
2023/01/20 10:06:18;;;;;;;31.13;24.50;;;2.90;99.90;;;;;;6125412;23;20478;-74
2023/01/20 10:08:53;;;;;;;30.83;23.27;;;2.90;99.90;;;;;;6137432;23;20384;-74
2023/01/20 10:11:37;;;;;;;26.90;23.17;;;2.90;99.90;;;;;;6126222;23;20413;-75
2023/01/20 10:14:12;;;;;;;26.57;21.87;;;3.00;99.90;;;;;;6125581;23;20475;-75
2023/01/20 10:16:45;;;;;;;28.20;23.97;;;3.00;99.90;;;;;;6125517;23;20435;-74
2023/01/20 10:19:20;;;;;;;30.40;22.77;;;3.00;99.90;;;;;;6125541;23;20413;-74
2023/01/20 10:21:53;;;;;;;27.90;22.33;;;3.00;99.90;;;;;;6137120;23;20423;-74
2023/01/20 10:24:31;;;;;;;26.80;20.70;;;3.00;99.90;;;;;;6125357;23;20412;-74
2023/01/20 10:27:02;;;;;;;28.83;21.23;;;3.00;99.90;;;;;;6125254;23;20523;-75
2023/01/20 10:29:35;;;;;;;27.77;22.83;;;3.00;99.90;;;;;;6127249;23;20406;-74
2023/01/20 10:32:08;;;;;;;29.40;22.63;;;3.00;99.90;;;;;;6125335;23;20413;-75
2023/01/20 10:34:41;;;;;;;29.50;23.83;;;3.00;99.90;;;;;;6136617;23;20837;-75
2023/01/20 10:37:11;;;;;;;27.07;22.70;;;3.00;99.90;;;;;;6125235;23;20439;-74
2023/01/20 10:39:48;;;;;;;29.20;24.73;;;3.00;99.90;;;;;;6125194;23;20504;-75
2023/01/20 10:42:18;;;;;;;27.97;21.77;;;3.00;99.90;;;;;;6136908;23;20423;-74
2023/01/20 10:44:49;;;;;;;26.50;22.57;;;3.10;99.90;;;;;;6125616;23;20404;-75
2023/01/20 10:47:34;;;;;;;28.43;22.93;;;3.00;99.90;;;;;;6125102;23;20850;-75
2023/01/20 10:50:38;;;;;;;36.10;24.30;;;3.10;99.90;;;;;;6136669;23;20765;-75
2023/01/20 10:53:23;;;;;;;28.30;23.03;;;3.00;99.90;;;;;;6136910;23;20370;-74
2023/01/20 10:56:07;;;;;;;28.50;23.47;;;3.00;99.90;;;;;;6136651;23;20424;-74
2023/01/20 10:58:37;;;;;;;25.87;21.47;;;3.10;99.90;;;;;;6136834;23;20424;-75
2023/01/20 11:01:07;;;;;;;26.00;21.60;;;3.10;99.90;;;;;;6126115;23;20480;-74
2023/01/20 11:03:39;;;;;;;24.70;20.93;;;3.10;99.90;;;;;;6136645;23;20445;-75
2023/01/20 11:06:10;;;;;;;25.00;21.50;;;3.20;99.90;;;;;;6136276;23;20408;-75
2023/01/20 11:08:38;;;;;;;24.83;22.17;;;3.20;99.90;;;;;;6136287;23;20437;-75
2023/01/20 11:11:14;;;;;;;24.97;21.40;;;3.20;99.90;;;;;;6124969;23;20605;-75
2023/01/20 11:13:43;;;;;;;25.07;21.60;;;3.30;99.90;;;;;;6125036;23;20863;-75
2023/01/20 11:16:16;;;;;;;21.93;19.53;;;3.30;99.90;;;;;;6136192;23;20441;-74
2023/01/20 11:18:59;;;;;;;24.83;19.97;;;3.30;99.90;;;;;;6125046;23;20409;-74
2023/01/20 11:21:29;;;;;;;24.70;20.30;;;3.30;99.90;;;;;;6136580;23;20400;-74
2023/01/20 11:23:58;;;;;;;22.50;20.10;;;3.30;99.90;;;;;;6126455;23;20413;-74
2023/01/20 11:26:31;;;;;;;24.33;18.57;;;3.30;99.90;;;;;;6136317;23;20429;-74
2023/01/20 11:29:01;;;;;;;23.63;19.47;;;3.30;99.90;;;;;;6136842;23;20382;-75
2023/01/20 11:31:41;;;;;;;19.73;17.60;;;3.20;99.90;;;;;;6136905;23;20396;-74
2023/01/20 11:34:24;;;;;;;23.90;19.87;;;3.20;99.90;;;;;;6136869;23;20378;-75
2023/01/20 11:37:15;;;;;;;22.10;19.03;;;3.20;99.90;;;;;;6136289;23;20441;-74
2023/01/20 11:39:56;;;;;;;24.30;19.27;;;3.30;99.90;;;;;;6124949;23;20447;-75
2023/01/20 11:42:27;;;;;;;20.50;18.33;;;3.30;99.90;;;;;;6136877;23;20390;-74
2023/01/20 11:44:57;;;;;;;23.60;18.97;;;3.30;99.90;;;;;;6126634;23;20496;-75
2023/01/20 11:47:45;;;;;;;22.20;18.70;;;3.30;99.90;;;;;;6124758;23;21110;-75
2023/01/20 11:50:25;;;;;;;20.83;18.60;;;3.40;99.90;;;;;;6136091;23;20404;-74
2023/01/20 11:53:10;;;;;;;23.00;19.10;;;3.40;99.90;;;;;;6136438;23;20465;-75
2023/01/20 11:55:46;;;;;;;22.57;18.50;;;3.40;99.90;;;;;;6124755;23;20928;-75
2023/01/20 11:58:19;;;;;;;21.23;18.90;;;3.40;99.90;;;;;;6124899;23;20428;-75
2023/01/20 12:00:49;;;;;;;23.30;18.63;;;3.50;99.90;;;;;;6126681;23;20869;-75
2023/01/20 12:03:50;;;;;;;21.53;19.23;;;3.50;99.90;;;;;;6125023;23;20501;-75
2023/01/20 12:06:23;;;;;;;22.50;19.03;;;3.50;99.90;;;;;;6136756;23;20413;-75
2023/01/20 12:08:56;;;;;;;22.70;19.63;;;3.50;99.90;;;;;;6136824;23;20386;-75
2023/01/20 12:11:28;;;;;;;23.20;19.43;;;3.60;99.90;;;;;;6136301;23;20388;-74
2023/01/20 12:14:27;;;;;;;28.73;22.40;;;3.60;99.90;;;;;;6135747;23;20392;-75
2023/01/20 12:17:14;;;;;;;21.73;19.00;;;3.60;99.90;;;;;;6124938;23;20799;-74
2023/01/20 12:19:58;;;;;;;22.83;18.30;;;3.60;99.90;;;;;;6125211;23;20422;-75
2023/01/20 12:22:34;;;;;;;21.43;18.60;;;3.70;99.90;;;;;;6136294;23;20865;-75
2023/01/20 12:25:13;;;;;;;21.60;19.30;;;3.70;99.90;;;;;;6125258;23;21216;-74
2023/01/20 12:27:46;;;;;;;20.93;18.43;;;3.70;99.90;;;;;;6124658;23;20487;-74
2023/01/20 12:30:28;;;;;;;21.90;18.60;;;3.70;99.90;;;;;;6125060;23;20424;-75
2023/01/20 12:32:58;;;;;;;23.27;19.90;;;3.70;99.90;;;;;;6125168;23;20421;-74
2023/01/20 12:35:31;;;;;;;23.30;18.57;;;3.80;99.90;;;;;;6136369;23;20402;-75
2023/01/20 12:38:06;;;;;;;18.40;16.43;;;3.80;99.90;;;;;;6136537;23;20512;-73
2023/01/20 12:40:43;;;;;;;20.60;17.83;;;3.80;99.90;;;;;;6124993;23;20409;-74
2023/01/20 12:43:41;;;;;;;21.30;19.10;;;3.80;99.90;;;;;;6125074;23;20409;-73
2023/01/20 12:46:25;;;;;;;27.03;21.90;;;3.80;99.90;;;;;;6101775;23;22115;-73
2023/01/20 12:49:15;;;;;;;23.13;20.07;;;3.80;99.90;;;;;;6124850;23;20413;-73
2023/01/20 12:51:52;;;;;;;26.90;23.40;;;3.80;99.90;;;;;;6126901;23;20405;-73
2023/01/20 12:54:44;;;;;;;27.50;23.10;;;3.80;99.90;;;;;;6136861;23;20472;-74
2023/01/20 12:57:29;;;;;;;23.43;20.93;;;3.80;99.90;;;;;;6125867;23;20524;-74
2023/01/20 13:00:15;;;;;;;25.93;21.17;;;3.80;99.90;;;;;;6137093;23;20448;-74
2023/01/20 13:03:01;;;;;;;22.70;19.73;;;3.80;99.90;;;;;;6136159;23;20908;-73
2023/01/20 13:05:56;;;;;;;22.73;19.07;;;3.80;99.90;;;;;;6136125;23;20727;-74
2023/01/20 13:08:35;;;;;;;23.03;20.57;;;3.80;99.90;;;;;;6125629;23;20448;-74
2023/01/20 13:11:15;;;;;;;22.47;19.67;;;3.80;99.90;;;;;;6125942;23;20464;-73